createdAt,value
2023-01-24T00:02:23.310Z,109.88
2023-01-24T00:04:51.063Z,108.05
2023-01-24T00:07:18.651Z,109.68
2023-01-24T00:09:46.554Z,102.57
2023-01-24T00:12:22.604Z,94.63
2023-01-24T00:14:50.775Z,97.90
2023-01-24T00:17:18.481Z,97.57
2023-01-24T00:19:46.010Z,97.43
2023-01-24T00:22:13.486Z,98.45
2023-01-24T00:24:41.072Z,93.18
2023-01-24T00:27:12.177Z,90.05
2023-01-24T00:29:39.666Z,89.53
2023-01-24T00:32:07.382Z,88.80
2023-01-24T00:34:34.934Z,91.05
2023-01-24T00:37:02.347Z,91.43
2023-01-24T00:39:30.012Z,89.90
2023-01-24T00:41:57.516Z,86.90
2023-01-24T00:44:27.707Z,83.63
2023-01-24T00:46:59.029Z,83.90
2023-01-24T00:49:46.826Z,79.78
2023-01-24T00:52:14.445Z,79.22
2023-01-24T00:54:42.040Z,75.20
2023-01-24T00:57:09.529Z,76.95
2023-01-24T00:59:39.462Z,73.90
2023-01-24T01:02:08.756Z,71.55
2023-01-24T01:04:36.301Z,70.50
2023-01-24T01:07:03.738Z,67.50
2023-01-24T01:09:31.279Z,65.15
2023-01-24T01:11:58.756Z,64.25
2023-01-24T01:14:26.179Z,63.28
2023-01-24T01:16:56.174Z,60.35
2023-01-24T01:19:23.716Z,55.55
2023-01-24T01:21:51.240Z,54.60
2023-01-24T01:24:18.996Z,50.25
2023-01-24T01:26:46.586Z,52.00
2023-01-24T01:29:14.058Z,52.03
2023-01-24T01:31:41.650Z,50.53
2023-01-24T01:34:09.273Z,44.58
2023-01-24T01:36:36.721Z,43.35
2023-01-24T01:39:04.530Z,44.10
2023-01-24T01:41:35.298Z,43.85
2023-01-24T01:44:41.713Z,43.47
2023-01-24T01:47:17.858Z,41.22
2023-01-24T01:49:46.634Z,42.05
2023-01-24T01:52:14.283Z,40.23
2023-01-24T01:54:42.522Z,37.75
2023-01-24T01:57:12.756Z,35.70
2023-01-24T01:59:41.092Z,35.97
2023-01-24T02:02:08.755Z,37.22
2023-01-24T02:04:41.602Z,37.47
2023-01-24T02:07:10.542Z,36.38
2023-01-24T02:09:42.148Z,35.25
2023-01-24T02:12:13.566Z,33.60
2023-01-24T02:14:59.497Z,36.00
2023-01-24T02:17:27.067Z,35.60
2023-01-24T02:20:05.024Z,34.60
2023-01-24T02:22:35.613Z,34.67
2023-01-24T02:25:26.267Z,36.63
2023-01-24T02:27:53.815Z,37.75
2023-01-24T02:30:21.314Z,39.25
2023-01-24T02:32:48.879Z,35.78
2023-01-24T02:35:32.136Z,39.05
2023-01-24T02:38:02.687Z,42.25
2023-01-24T02:40:30.168Z,37.80
2023-01-24T02:42:58.331Z,39.65
2023-01-24T02:45:27.193Z,38.80
2023-01-24T02:47:55.044Z,37.88
2023-01-24T02:50:23.219Z,37.75
2023-01-24T02:53:09.067Z,34.83
2023-01-24T02:55:56.543Z,35.58
2023-01-24T02:58:24.114Z,36.65
2023-01-24T03:00:51.603Z,37.60
2023-01-24T03:03:19.079Z,38.90
2023-01-24T03:05:58.690Z,36.47
2023-01-24T03:08:26.779Z,36.50
2023-01-24T03:10:54.428Z,37.53
2023-01-24T03:13:40.904Z,36.55
2023-01-24T03:16:27.290Z,34.00
2023-01-24T03:19:13.358Z,35.78
2023-01-24T03:21:59.519Z,35.17
2023-01-24T03:24:45.986Z,35.72
2023-01-24T03:27:32.090Z,34.03
2023-01-24T03:30:18.211Z,32.15
2023-01-24T03:33:04.261Z,33.30
2023-01-24T03:35:31.836Z,31.80
2023-01-24T03:38:17.891Z,33.65
2023-01-24T03:40:45.485Z,30.58
2023-01-24T03:43:12.972Z,31.00
2023-01-24T03:45:40.954Z,32.45
2023-01-24T03:48:16.314Z,30.20
2023-01-24T03:51:02.961Z,30.65
2023-01-24T03:53:31.353Z,27.40
2023-01-24T03:56:02.391Z,29.63
2023-01-24T03:58:30.324Z,28.25
2023-01-24T04:00:57.816Z,28.17
2023-01-24T04:03:25.396Z,28.17
2023-01-24T04:05:52.962Z,25.50
2023-01-24T04:08:20.628Z,26.98
2023-01-24T04:10:48.187Z,27.20
2023-01-24T04:13:15.735Z,26.25
2023-01-24T04:15:43.498Z,27.02
2023-01-24T04:18:12.805Z,28.85
2023-01-24T04:20:40.290Z,29.77
2023-01-24T04:23:08.429Z,29.67
2023-01-24T04:25:35.877Z,27.15
2023-01-24T04:28:03.545Z,27.95
2023-01-24T04:30:31.034Z,27.17
2023-01-24T04:32:58.471Z,27.02
2023-01-24T04:35:26.940Z,26.95
2023-01-24T04:37:54.497Z,26.48
2023-01-24T04:40:21.953Z,25.42
2023-01-24T04:42:49.781Z,27.95
2023-01-24T04:45:17.349Z,29.02
2023-01-24T04:47:44.796Z,28.80
2023-01-24T04:50:12.706Z,26.77
2023-01-24T04:52:40.400Z,26.92
2023-01-24T04:55:08.269Z,26.42
2023-01-24T04:57:35.656Z,25.10
2023-01-24T05:00:03.907Z,23.85
2023-01-24T05:02:31.382Z,24.90
2023-01-24T05:04:58.785Z,22.90
2023-01-24T05:07:26.264Z,25.23
2023-01-24T05:09:53.718Z,26.73
2023-01-24T05:12:21.311Z,25.60
2023-01-24T05:14:48.737Z,24.08
2023-01-24T05:17:16.206Z,24.95
2023-01-24T05:19:43.609Z,25.55
2023-01-24T05:22:14.020Z,25.75
2023-01-24T05:24:41.531Z,30.30
2023-01-24T05:27:09.455Z,26.98
2023-01-24T05:29:37.072Z,26.17
2023-01-24T05:32:04.960Z,24.92
2023-01-24T05:34:32.514Z,23.98
2023-01-24T05:37:00.048Z,24.42
2023-01-24T05:39:28.443Z,26.42
2023-01-24T05:41:56.380Z,27.85
2023-01-24T05:44:23.933Z,26.10
2023-01-24T05:46:51.367Z,27.25
2023-01-24T05:49:19.014Z,28.52
2023-01-24T05:51:46.457Z,27.02
2023-01-24T05:54:13.925Z,27.50
2023-01-24T05:56:41.349Z,24.95
2023-01-24T05:59:08.993Z,23.88
2023-01-24T06:01:36.422Z,26.83
2023-01-24T06:04:05.733Z,22.02
2023-01-24T06:06:35.614Z,20.60
2023-01-24T06:09:03.023Z,17.88
2023-01-24T06:11:31.178Z,17.45
2023-01-24T06:13:58.834Z,16.85
2023-01-24T06:16:26.726Z,17.67
2023-01-24T06:18:54.559Z,19.27
2023-01-24T06:21:27.234Z,21.50
2023-01-24T06:23:54.878Z,20.05
2023-01-24T06:26:22.582Z,20.08
2023-01-24T06:28:50.363Z,16.88
2023-01-24T06:31:35.214Z,18.05
2023-01-24T06:34:06.887Z,17.08
2023-01-24T06:36:46.889Z,16.80
2023-01-24T06:39:16.666Z,17.40
2023-01-24T06:44:12.790Z,16.30
2023-01-24T06:46:40.383Z,16.27
2023-01-24T06:49:08.264Z,15.65
2023-01-24T06:51:35.779Z,15.52
2023-01-24T06:54:04.183Z,16.40
2023-01-24T06:56:31.756Z,15.23
2023-01-24T06:58:59.435Z,18.65
2023-01-24T07:01:27.492Z,18.50
2023-01-24T07:03:55.119Z,17.63
2023-01-24T07:06:24.297Z,16.30
2023-01-24T07:08:52.056Z,14.07
2023-01-24T07:11:19.572Z,12.93
2023-01-24T07:13:47.144Z,12.55
2023-01-24T07:16:14.756Z,11.65
2023-01-24T07:18:42.363Z,10.95
2023-01-24T07:21:10.167Z,10.13
2023-01-24T07:23:37.649Z,10.80
2023-01-24T07:26:05.340Z,11.45
2023-01-24T07:28:32.926Z,10.60
2023-01-24T07:31:00.698Z,10.52
2023-01-24T07:33:28.236Z,9.60
2023-01-24T07:35:55.644Z,11.57
2023-01-24T07:38:23.192Z,10.10
2023-01-24T07:40:51.225Z,12.68
2023-01-24T07:43:21.018Z,12.52
2023-01-24T07:45:51.096Z,13.80
2023-01-24T07:48:19.626Z,12.15
2023-01-24T07:50:47.193Z,12.40
2023-01-24T07:53:14.696Z,12.25
2023-01-24T07:55:47.521Z,13.23
2023-01-24T07:58:25.029Z,13.15
2023-01-24T08:00:53.025Z,13.35
2023-01-24T08:03:20.547Z,13.43
2023-01-24T08:05:48.478Z,12.23
2023-01-24T08:08:16.045Z,13.07
2023-01-24T08:10:47.337Z,14.05
2023-01-24T08:13:14.777Z,12.75
2023-01-24T08:15:42.247Z,13.30
2023-01-24T08:18:09.668Z,12.55
2023-01-24T08:20:38.337Z,12.60
2023-01-24T08:23:08.474Z,12.93
2023-01-24T08:25:36.062Z,16.45
2023-01-24T08:28:03.695Z,15.60
2023-01-24T08:30:33.826Z,16.50
2023-01-24T08:33:02.240Z,18.10
2023-01-24T08:35:29.724Z,21.73
2023-01-24T08:37:57.433Z,20.85
2023-01-24T08:40:25.313Z,18.15
2023-01-24T08:42:53.233Z,15.45
2023-01-24T08:45:21.807Z,16.27
2023-01-24T08:47:53.107Z,18.15
2023-01-24T08:50:21.139Z,18.75
2023-01-24T08:52:49.097Z,18.95
2023-01-24T08:55:17.081Z,22.40
2023-01-24T08:57:44.677Z,20.98
2023-01-24T09:00:12.673Z,22.00
2023-01-24T09:02:42.850Z,21.67
2023-01-24T09:05:11.068Z,22.63
2023-01-24T09:07:40.301Z,22.05
2023-01-24T09:10:14.575Z,24.75
2023-01-24T09:12:42.132Z,22.85
2023-01-24T09:15:09.775Z,20.20
2023-01-24T09:17:38.419Z,19.65
2023-01-24T09:20:06.684Z,26.60
2023-01-24T09:22:34.355Z,26.67
2023-01-24T09:25:01.856Z,26.77
2023-01-24T09:27:29.592Z,29.73
2023-01-24T09:52:25.887Z,41.15
2023-01-24T09:55:32.370Z,31.42
2023-01-24T09:58:13.454Z,32.17
2023-01-24T10:00:41.317Z,31.08
2023-01-24T10:03:21.100Z,28.08
2023-01-24T10:05:49.457Z,29.15
2023-01-24T10:08:20.252Z,31.83
2023-01-24T10:11:06.663Z,30.63
2023-01-24T10:13:42.974Z,26.77
2023-01-24T10:16:28.813Z,32.50
2023-01-24T10:19:12.749Z,32.28
2023-01-24T10:22:02.626Z,33.65
2023-01-24T10:24:39.395Z,35.92
2023-01-24T10:27:23.513Z,33.03
2023-01-24T10:29:54.997Z,31.42
2023-01-24T10:32:22.722Z,30.25
2023-01-24T10:34:50.236Z,39.08
2023-01-24T10:37:24.926Z,36.88
2023-01-24T10:39:52.481Z,38.45
2023-01-24T10:42:21.147Z,37.90
2023-01-24T10:44:48.611Z,38.33
2023-01-24T10:47:18.008Z,35.88
2023-01-24T10:49:46.142Z,36.35
2023-01-24T10:52:18.054Z,35.25
2023-01-24T10:54:52.679Z,34.80
2023-01-24T10:57:20.146Z,31.75
2023-01-24T10:59:47.971Z,32.45
2023-01-24T11:02:25.376Z,31.58
2023-01-24T11:05:13.284Z,29.75
2023-01-24T11:07:42.285Z,30.58
2023-01-24T11:10:18.958Z,31.90
2023-01-24T11:12:56.797Z,32.20
2023-01-24T11:15:34.757Z,30.92
2023-01-24T11:18:09.421Z,31.00
2023-01-24T11:20:37.347Z,30.92
2023-01-24T11:23:17.186Z,31.60
2023-01-24T11:25:54.729Z,40.88
2023-01-24T11:28:55.168Z,40.90
2023-01-24T11:31:45.993Z,45.55
2023-01-24T11:34:25.743Z,44.47
2023-01-24T11:39:22.022Z,40.40
2023-01-24T11:42:09.732Z,44.30
2023-01-24T11:44:39.944Z,49.25
2023-01-24T11:47:12.954Z,58.38
2023-01-24T11:49:54.320Z,52.17
2023-01-24T11:52:23.048Z,48.30
2023-01-24T11:54:57.987Z,49.83
2023-01-24T11:57:34.398Z,45.10
2023-01-24T12:00:20.595Z,41.13
2023-01-24T12:02:51.960Z,40.30
2023-01-24T12:05:22.849Z,37.75
2023-01-24T12:07:58.775Z,38.35
2023-01-24T12:10:28.175Z,39.42
2023-01-24T12:13:22.058Z,39.53
2023-01-24T12:16:10.270Z,40.00
2023-01-24T12:18:44.524Z,42.97
2023-01-24T12:21:12.226Z,43.13
2023-01-24T12:23:58.730Z,42.55
2023-01-24T12:26:27.921Z,40.95
2023-01-24T12:28:57.991Z,39.00
2023-01-24T12:31:41.441Z,41.78
2023-01-24T12:34:15.921Z,41.53
2023-01-24T12:36:46.269Z,40.75
2023-01-24T12:39:16.141Z,42.28
2023-01-24T12:41:43.715Z,43.65
2023-01-24T12:44:30.237Z,43.38
2023-01-24T12:47:07.430Z,51.63
2023-01-24T12:49:46.061Z,56.70
2023-01-24T12:52:16.788Z,39.45
2023-01-24T12:54:49.763Z,50.08
2023-01-24T12:57:27.933Z,51.75
2023-01-24T12:59:55.586Z,47.45
2023-01-24T13:02:33.375Z,46.97
2023-01-24T13:05:04.260Z,44.95
2023-01-24T13:07:38.220Z,45.42
2023-01-24T13:10:25.062Z,49.17
2023-01-24T13:12:52.646Z,49.35
2023-01-24T13:15:27.534Z,47.60
2023-01-24T13:17:57.687Z,52.47
2023-01-24T13:20:25.510Z,48.58
2023-01-24T13:23:05.041Z,49.00
2023-01-24T13:25:51.404Z,50.90
2023-01-24T13:28:30.260Z,51.30
2023-01-24T13:31:16.861Z,52.03
2023-01-24T13:33:50.552Z,56.00
2023-01-24T13:36:21.825Z,55.13
2023-01-24T13:38:49.470Z,58.45
2023-01-24T13:41:29.159Z,58.17
2023-01-24T13:46:52.001Z,55.50
2023-01-24T13:49:46.129Z,54.63
2023-01-24T13:52:34.036Z,53.63
2023-01-24T13:55:08.289Z,55.35
2023-01-24T13:57:41.267Z,54.70
2023-01-24T14:00:14.275Z,55.72
2023-01-24T14:02:43.806Z,59.25
2023-01-24T14:07:40.368Z,58.10
2023-01-24T14:10:09.836Z,42.10
2023-01-24T14:12:41.073Z,53.15
2023-01-24T14:15:11.532Z,52.33
2023-01-24T14:17:41.974Z,53.17
2023-01-24T14:20:19.670Z,54.17
2023-01-24T14:22:47.394Z,50.53
2023-01-24T14:25:33.880Z,49.47
2023-01-24T14:28:01.936Z,56.53
2023-01-24T14:30:32.988Z,68.75
2023-01-24T14:33:07.492Z,70.53
2023-01-24T14:35:36.883Z,67.63
2023-01-24T14:38:20.297Z,61.33
2023-01-24T14:40:51.461Z,60.38
2023-01-24T14:43:19.374Z,54.83
2023-01-24T14:45:47.482Z,70.88
2023-01-24T14:48:19.034Z,69.18
2023-01-24T14:50:47.075Z,64.40
2023-01-24T14:53:44.282Z,72.53
2023-01-24T14:56:13.431Z,87.10
2023-01-24T14:58:40.974Z,88.05
2023-01-24T15:01:27.113Z,85.75
2023-01-24T15:03:56.788Z,86.03
2023-01-24T15:08:58.629Z,86.13
2023-01-24T15:11:33.310Z,78.18
2023-01-24T15:14:01.930Z,51.47
2023-01-24T15:16:34.638Z,23.13
2023-01-24T15:19:12.560Z,20.60
2023-01-24T15:21:40.678Z,16.27
2023-01-24T15:24:15.075Z,12.07
2023-01-24T15:26:43.939Z,11.68
2023-01-24T15:29:30.461Z,11.18
2023-01-24T15:31:57.998Z,10.90
2023-01-24T15:34:31.233Z,11.13
2023-01-24T15:37:02.066Z,10.90
2023-01-24T15:39:29.662Z,13.32
2023-01-24T15:42:16.196Z,15.10
2023-01-24T15:44:48.021Z,19.05
2023-01-24T15:47:41.307Z,19.83
2023-01-24T15:50:39.471Z,22.98
2023-01-24T15:53:15.877Z,20.67
2023-01-24T15:55:43.447Z,20.90
2023-01-24T15:58:12.001Z,23.90
2023-01-24T16:00:40.725Z,23.40
2023-01-24T16:03:09.615Z,26.48
2023-01-24T16:05:37.066Z,28.70
2023-01-24T16:08:06.711Z,23.40
2023-01-24T16:13:01.519Z,50.42
2023-01-24T16:15:29.144Z,45.97
2023-01-24T16:17:56.628Z,48.90
2023-01-24T16:20:25.162Z,34.20
2023-01-24T16:22:52.978Z,32.10
2023-01-24T16:25:20.615Z,28.83
2023-01-24T16:27:48.330Z,27.77
2023-01-24T16:30:16.035Z,25.63
2023-01-24T16:32:43.508Z,21.73
2023-01-24T16:35:11.008Z,29.02
2023-01-24T16:37:38.629Z,49.10
2023-01-24T16:40:08.896Z,44.15
2023-01-24T16:42:36.681Z,27.15
2023-01-24T16:45:04.719Z,47.17
2023-01-24T16:47:32.389Z,37.15
2023-01-24T16:49:59.936Z,33.20
2023-01-24T16:52:27.981Z,35.33
2023-01-24T16:54:56.147Z,26.52
2023-01-24T16:57:23.832Z,15.60
2023-01-24T16:59:51.706Z,13.05
2023-01-24T17:02:19.411Z,14.70
2023-01-24T17:04:49.049Z,15.82
2023-01-24T17:09:44.057Z,33.20
2023-01-24T17:12:14.866Z,33.00
2023-01-24T17:14:44.079Z,32.95
2023-01-24T17:17:11.853Z,38.85
2023-01-24T17:19:39.499Z,53.30
2023-01-24T17:22:07.384Z,41.25
2023-01-24T17:24:34.997Z,39.20
2023-01-24T17:27:02.820Z,34.28
2023-01-24T17:29:30.470Z,35.03
2023-01-24T17:31:58.207Z,44.63
2023-01-24T17:34:25.814Z,45.35
2023-01-24T17:36:53.788Z,42.10
2023-01-24T17:39:21.405Z,45.50
2023-01-24T17:41:52.333Z,46.70
2023-01-24T17:44:20.751Z,44.92
2023-01-24T17:46:48.377Z,45.47
2023-01-24T17:49:16.151Z,56.95
2023-01-24T17:51:44.919Z,61.00
2023-01-24T17:54:12.543Z,72.47
2023-01-24T17:56:40.366Z,81.85
2023-01-24T17:59:07.926Z,78.55
2023-01-24T18:01:35.366Z,63.00
2023-01-24T18:04:05.129Z,57.40
2023-01-24T18:06:35.679Z,59.80
2023-01-24T18:09:03.179Z,61.53
2023-01-24T18:11:31.225Z,57.85
2023-01-24T18:13:58.826Z,53.58
2023-01-24T18:16:26.505Z,64.80
2023-01-24T18:18:54.121Z,55.80
2023-01-24T18:21:23.473Z,43.38
2023-01-24T18:23:53.595Z,44.70
2023-01-24T18:26:21.237Z,40.53
2023-01-24T18:28:49.690Z,33.63
2023-01-24T18:31:17.345Z,40.00
2023-01-24T18:33:46.191Z,50.72
2023-01-24T18:36:16.864Z,56.70
2023-01-24T18:38:44.919Z,50.03
2023-01-24T18:41:13.022Z,46.33
2023-01-24T18:43:40.621Z,40.88
2023-01-24T18:46:09.756Z,41.42
2023-01-24T18:48:37.504Z,39.97
2023-01-24T18:51:05.874Z,42.78
2023-01-24T18:53:34.166Z,38.42
2023-01-24T18:56:01.891Z,48.10
2023-01-24T18:58:29.411Z,61.78
2023-01-24T19:00:57.154Z,53.80
2023-01-24T19:03:24.593Z,46.90
2023-01-24T19:05:52.201Z,47.65
2023-01-24T19:08:20.228Z,45.75
2023-01-24T19:10:47.736Z,41.05
2023-01-24T19:13:15.361Z,37.35
2023-01-24T19:15:42.911Z,40.78
2023-01-24T19:18:10.460Z,38.20
2023-01-24T19:20:38.035Z,42.75
2023-01-24T19:23:05.473Z,40.28
2023-01-24T19:25:33.092Z,36.47
2023-01-24T19:28:00.758Z,33.47
2023-01-24T19:30:28.266Z,33.58
2023-01-24T19:32:56.663Z,34.53
2023-01-24T19:35:24.191Z,32.00
2023-01-24T19:37:52.761Z,35.95
2023-01-24T19:40:20.392Z,35.72
2023-01-24T19:42:48.900Z,33.13
2023-01-24T19:45:19.575Z,29.85
2023-01-24T19:47:47.783Z,40.38
2023-01-24T19:50:15.336Z,80.72
2023-01-24T19:52:42.836Z,86.05
2023-01-24T19:55:10.546Z,69.70
2023-01-24T20:01:08.119Z,91.85
2023-01-24T20:03:39.164Z,74.40
2023-01-24T20:06:10.341Z,56.90
2023-01-24T20:08:38.337Z,46.72
2023-01-24T20:11:06.766Z,41.97
2023-01-24T20:13:34.250Z,42.22
2023-01-24T20:16:09.356Z,42.67
2023-01-24T20:18:36.899Z,43.55
2023-01-24T20:21:04.467Z,43.83
2023-01-24T20:23:32.226Z,48.50
2023-01-24T20:26:06.348Z,46.85
2023-01-24T20:28:34.027Z,49.67
2023-01-24T20:31:02.017Z,57.03
2023-01-24T20:33:29.864Z,59.55
2023-01-24T20:36:04.555Z,53.10
2023-01-24T20:38:37.665Z,63.00
2023-01-24T20:41:09.940Z,70.85
2023-01-24T20:43:38.788Z,70.15
2023-01-24T20:46:07.635Z,77.65
2023-01-24T20:48:38.577Z,77.43
2023-01-24T20:51:06.735Z,68.72
2023-01-24T20:53:35.427Z,61.28
2023-01-24T20:56:03.812Z,54.53
2023-01-24T20:58:32.037Z,61.30
2023-01-24T21:01:04.078Z,83.75
2023-01-24T21:03:31.907Z,88.57
2023-01-24T21:06:03.875Z,84.05
2023-01-24T21:08:40.700Z,73.45
2023-01-24T21:11:08.344Z,72.35
2023-01-24T21:13:42.971Z,80.70
2023-01-24T21:16:11.491Z,84.63
2023-01-24T21:18:39.011Z,82.90
2023-01-24T21:21:06.936Z,79.97
2023-01-24T21:23:34.587Z,79.97
2023-01-24T21:26:09.318Z,81.13
2023-01-24T21:28:36.950Z,72.75
2023-01-24T21:31:08.205Z,70.40
2023-01-24T21:33:35.792Z,69.68
2023-01-24T21:36:08.334Z,62.00
2023-01-24T21:38:35.992Z,56.38
2023-01-24T21:41:24.991Z,54.30
2023-01-24T21:43:53.751Z,53.38
2023-01-24T21:46:21.491Z,58.88
2023-01-24T21:49:07.216Z,68.57
2023-01-24T21:51:41.117Z,81.13
2023-01-24T21:54:10.785Z,85.45
2023-01-24T21:56:58.469Z,93.85
2023-01-24T21:59:29.638Z,86.55
2023-01-24T22:01:58.054Z,91.75
2023-01-24T22:04:25.996Z,94.30
2023-01-24T22:06:56.346Z,88.45
2023-01-24T22:09:23.947Z,84.60
2023-01-24T22:11:54.175Z,87.72
2023-01-24T22:14:25.765Z,88.57
2023-01-24T22:16:54.453Z,98.25
2023-01-24T22:19:22.990Z,110.32
2023-01-24T22:21:57.175Z,113.45
2023-01-24T22:24:33.432Z,116.68
2023-01-24T22:27:04.999Z,120.50
2023-01-24T22:29:35.996Z,132.88
2023-01-24T22:32:07.018Z,129.55
2023-01-24T22:34:34.711Z,117.40
2023-01-24T22:37:22.437Z,116.13
2023-01-24T22:39:50.106Z,110.65
2023-01-24T22:42:18.807Z,112.55
2023-01-24T22:44:46.336Z,114.25
2023-01-24T22:47:14.059Z,71.88
2023-01-24T22:49:42.695Z,73.25
2023-01-24T22:52:14.440Z,68.32
2023-01-24T22:54:42.035Z,63.92
2023-01-24T22:57:09.769Z,60.17
2023-01-24T22:59:37.464Z,46.38
2023-01-24T23:02:05.610Z,48.22
2023-01-24T23:04:33.085Z,51.58
2023-01-24T23:07:00.658Z,57.67
2023-01-24T23:09:28.102Z,64.68
2023-01-24T23:11:55.587Z,69.60
2023-01-24T23:14:41.476Z,49.58
2023-01-24T23:17:09.359Z,46.47
2023-01-24T23:19:55.367Z,47.15
2023-01-24T23:22:24.122Z,39.08
2023-01-24T23:24:51.900Z,35.03
2023-01-24T23:27:20.009Z,33.30
2023-01-24T23:30:06.265Z,34.50
2023-01-24T23:32:38.518Z,34.42
2023-01-24T23:35:07.268Z,33.10
2023-01-24T23:37:34.975Z,38.83
2023-01-24T23:40:02.731Z,36.83
2023-01-24T23:42:30.286Z,47.80
2023-01-24T23:44:57.714Z,51.88
2023-01-24T23:47:26.206Z,53.80
2023-01-24T23:49:54.278Z,56.97
2023-01-24T23:52:21.788Z,56.65
2023-01-24T23:54:49.380Z,54.42
2023-01-24T23:57:17.009Z,54.97
2023-01-24T23:59:44.527Z,57.70
